The Burg, Illinois
Current Conditions -  °F | °C
As of 7:55 AM on Saturday 25 Oct 2014 (Local Time) from KRPJ Reporting Station
Moderate Fog Moderate Fog  
Wind Chill: 54°   Ceiling: 200
Heat Index: 54°   Visibility: 0mi
Dew Point: 54°   Wind: 5mph
Humidity: 100%   Direction: 260°W
Pressure: 29.95"   Gusts: NA
Location:  41.7005°N, 89.0835°W
Report Text: KRPJ 251255Z AUTO 26004KT M1/4SM FG OVC002 12/12 A2995 RMK AO2 T01230123
Loading
Personal Weather Stations






























Interactive Weather Map
Tropical Storm Tracking
New forecast layout! Learn more

10-Day Weather Forecast

Advertisements
Track Severe Weather on mobile